createdAt,value
2022-12-25T00:01:08.799Z,80.28
2022-12-25T00:03:37.506Z,80.35
2022-12-25T00:06:04.949Z,80.41
2022-12-25T00:08:31.987Z,80.28
2022-12-25T00:11:03.890Z,80.13
2022-12-25T00:13:30.911Z,80.05
2022-12-25T00:16:00.912Z,80.06
2022-12-25T00:18:27.985Z,80.18
2022-12-25T00:21:03.159Z,80.15
2022-12-25T00:23:30.264Z,79.99
2022-12-25T00:25:57.292Z,79.93
2022-12-25T00:28:24.452Z,80.02
2022-12-25T00:30:51.708Z,80.05
2022-12-25T00:33:18.740Z,80.02
2022-12-25T00:35:45.733Z,80.08
2022-12-25T00:38:12.675Z,79.85
2022-12-25T00:40:44.322Z,79.83
2022-12-25T00:43:11.298Z,79.75
2022-12-25T00:45:38.320Z,79.86
2022-12-25T00:48:05.448Z,79.94
2022-12-25T00:50:32.466Z,79.92
2022-12-25T00:52:59.461Z,79.80
2022-12-25T00:55:26.277Z,79.64
2022-12-25T00:57:53.221Z,79.57
2022-12-25T01:00:20.248Z,79.64
2022-12-25T01:02:47.457Z,79.67
2022-12-25T01:05:14.751Z,79.66
2022-12-25T01:07:41.701Z,79.69
2022-12-25T01:10:22.982Z,79.44
2022-12-25T01:12:50.441Z,79.39
2022-12-25T01:15:17.379Z,79.49
2022-12-25T01:17:44.618Z,79.56
2022-12-25T01:20:12.541Z,79.63
2022-12-25T01:22:39.443Z,79.51
2022-12-25T01:25:07.311Z,79.41
2022-12-25T01:27:34.187Z,79.37
2022-12-25T01:30:01.213Z,79.40
2022-12-25T01:32:31.928Z,79.56
2022-12-25T01:34:58.889Z,79.74
2022-12-25T01:37:25.816Z,79.66
2022-12-25T01:39:52.649Z,79.48
2022-12-25T01:42:20.935Z,79.45
2022-12-25T01:44:47.806Z,79.54
2022-12-25T01:47:15.431Z,79.65
2022-12-25T01:49:43.323Z,79.78
2022-12-25T01:52:12.883Z,79.80
2022-12-25T01:54:45.402Z,79.79
2022-12-25T01:57:16.636Z,79.69
2022-12-25T01:59:43.599Z,79.73
2022-12-25T02:02:10.755Z,79.78
2022-12-25T02:04:41.676Z,79.89
2022-12-25T02:07:16.869Z,79.82
2022-12-25T02:09:44.669Z,79.62
2022-12-25T02:12:22.987Z,79.56
2022-12-25T02:14:51.151Z,79.68
2022-12-25T02:17:36.240Z,79.85
2022-12-25T02:20:21.683Z,79.80
2022-12-25T02:23:16.404Z,79.69
2022-12-25T02:25:58.602Z,79.37
2022-12-25T02:28:45.997Z,79.42
2022-12-25T02:31:27.898Z,79.49
2022-12-25T02:34:05.414Z,79.55
2022-12-25T02:36:44.852Z,79.63
2022-12-25T02:39:53.383Z,79.60
2022-12-25T02:42:53.942Z,79.45
2022-12-25T02:45:51.321Z,79.59
2022-12-25T02:48:40.546Z,79.77
2022-12-25T02:51:28.769Z,80.00
2022-12-25T02:54:14.987Z,79.99
2022-12-25T02:57:01.368Z,80.00
2022-12-25T02:59:47.049Z,80.05
2022-12-25T03:02:33.930Z,80.31
2022-12-25T03:05:20.880Z,80.36
2022-12-25T03:07:47.850Z,80.24
2022-12-25T03:10:33.722Z,80.06
2022-12-25T03:13:06.741Z,80.03
2022-12-25T03:15:52.911Z,80.06
2022-12-25T03:18:22.482Z,80.08
2022-12-25T03:21:08.312Z,79.90
2022-12-25T03:23:54.322Z,79.72
2022-12-25T03:26:40.163Z,79.72
2022-12-25T03:29:07.215Z,79.92
2022-12-25T03:31:50.673Z,79.76
2022-12-25T03:34:43.898Z,79.70
2022-12-25T03:37:38.292Z,79.48
2022-12-25T03:40:40.875Z,79.38
2022-12-25T03:43:56.259Z,79.53
2022-12-25T03:46:41.996Z,79.53
2022-12-25T03:49:36.351Z,79.35
2022-12-25T03:52:22.418Z,79.15
2022-12-25T03:55:08.317Z,79.17
2022-12-25T03:57:56.352Z,79.21
2022-12-25T04:00:41.952Z,79.26
2022-12-25T04:03:27.860Z,79.17
2022-12-25T04:06:13.640Z,79.18
2022-12-25T04:08:59.498Z,79.31
2022-12-25T04:11:45.282Z,79.33
2022-12-25T04:14:30.890Z,79.42
2022-12-25T04:17:21.425Z,79.29
2022-12-25T04:20:07.196Z,79.11
2022-12-25T04:22:52.928Z,79.12
2022-12-25T04:25:38.715Z,79.11
2022-12-25T04:28:24.709Z,79.07
2022-12-25T04:31:10.957Z,78.98
2022-12-25T04:33:56.844Z,78.90
2022-12-25T04:36:26.750Z,78.93
2022-12-25T04:38:56.014Z,78.94
2022-12-25T04:41:23.055Z,79.02
2022-12-25T04:43:49.998Z,78.93
2022-12-25T04:46:17.072Z,78.85
2022-12-25T04:48:44.095Z,78.72
2022-12-25T04:51:18.953Z,78.65
2022-12-25T04:53:46.481Z,78.61
2022-12-25T04:56:13.869Z,78.69
2022-12-25T04:58:41.501Z,78.64
2022-12-25T05:01:11.273Z,78.56
2022-12-25T05:03:38.416Z,78.39
2022-12-25T05:06:06.123Z,78.49
2022-12-25T09:18:47.577Z,76.76
2022-12-25T09:21:15.749Z,75.30
2022-12-25T09:23:45.179Z,74.85
2022-12-25T09:26:15.200Z,74.27
2022-12-25T09:28:50.235Z,73.36
2022-12-25T09:31:22.110Z,72.59
2022-12-25T09:33:52.742Z,71.83
2022-12-25T09:36:22.084Z,71.57
2022-12-25T09:38:49.363Z,71.23
2022-12-25T09:41:35.388Z,70.51
2022-12-25T09:44:17.574Z,70.30
2022-12-25T09:46:47.733Z,70.43
2022-12-25T09:49:31.346Z,70.29
2022-12-25T09:52:02.256Z,70.27
2022-12-25T09:54:49.286Z,70.18
2022-12-25T09:57:16.383Z,70.06
2022-12-25T09:59:44.069Z,70.16
2022-12-25T10:02:29.749Z,69.58
2022-12-25T10:05:48.043Z,69.60
2022-12-25T10:08:33.463Z,69.59
2022-12-25T10:11:17.892Z,69.64
2022-12-25T10:13:59.907Z,69.37
2022-12-25T10:16:47.714Z,69.27
2022-12-25T10:19:24.832Z,69.01
2022-12-25T10:21:56.729Z,68.67
2022-12-25T10:24:41.195Z,68.70
2022-12-25T10:27:14.687Z,68.52
2022-12-25T10:29:41.519Z,68.20
2022-12-25T10:32:12.534Z,68.00
2022-12-25T10:34:40.528Z,67.93
2022-12-25T10:37:09.579Z,67.90
2022-12-25T10:39:40.932Z,67.64
2022-12-25T10:42:47.533Z,67.36
2022-12-25T10:45:14.413Z,67.38
2022-12-25T10:47:44.234Z,67.26
2022-12-25T10:50:24.870Z,67.27
2022-12-25T10:52:56.524Z,67.45
2022-12-25T10:55:28.781Z,67.38
2022-12-25T10:57:58.011Z,67.44
2022-12-25T11:00:27.238Z,67.37
2022-12-25T11:02:54.356Z,67.25
2022-12-25T11:05:28.373Z,67.14
2022-12-25T11:07:59.559Z,67.12
2022-12-25T11:10:37.806Z,67.11
2022-12-25T11:13:08.668Z,66.83
2022-12-25T11:15:42.902Z,66.97
2022-12-25T11:18:23.829Z,66.68
2022-12-25T11:20:55.519Z,66.60
2022-12-25T11:23:25.247Z,66.46
2022-12-25T11:26:09.474Z,66.55
2022-12-25T11:28:38.118Z,66.37
2022-12-25T11:31:08.935Z,66.35
2022-12-25T11:33:39.355Z,66.18
2022-12-25T11:36:15.989Z,65.99
2022-12-25T11:38:51.114Z,65.69
2022-12-25T11:41:25.241Z,65.53
2022-12-25T11:44:02.161Z,65.59
2022-12-25T11:46:31.543Z,65.67
2022-12-25T11:49:01.877Z,65.60
2022-12-25T11:51:31.970Z,65.76
2022-12-25T11:54:28.185Z,65.68
2022-12-25T11:56:56.058Z,65.50
2022-12-25T11:59:26.144Z,65.33
2022-12-25T12:01:54.797Z,64.92
2022-12-25T12:04:29.941Z,64.84
2022-12-25T12:07:13.018Z,64.84
2022-12-25T12:09:43.010Z,64.68
2022-12-25T12:12:12.842Z,64.84
2022-12-25T12:14:48.893Z,64.92
2022-12-25T12:17:16.904Z,65.16
2022-12-25T12:19:43.905Z,65.18
2022-12-25T12:22:17.883Z,65.11
2022-12-25T12:24:50.010Z,65.23
2022-12-25T12:27:46.460Z,65.13
2022-12-25T12:30:25.757Z,65.04
2022-12-25T12:32:54.118Z,65.04
2022-12-25T12:35:24.311Z,65.15
2022-12-25T12:38:24.377Z,65.11
2022-12-25T12:40:56.158Z,65.21
2022-12-25T12:43:30.952Z,65.48
2022-12-25T12:46:16.771Z,65.74
2022-12-25T12:48:45.839Z,65.95
2022-12-25T12:51:14.745Z,66.02
2022-12-25T12:53:42.831Z,66.18
2022-12-25T12:56:11.737Z,66.34
2022-12-25T12:58:45.235Z,66.40
2022-12-25T13:01:17.293Z,66.64
2022-12-25T13:03:49.485Z,66.96
2022-12-25T13:06:31.143Z,67.25
2022-12-25T13:09:17.145Z,67.44
2022-12-25T13:11:44.104Z,67.61
2022-12-25T13:14:16.642Z,67.67
2022-12-25T13:16:46.961Z,67.68
2022-12-25T13:19:24.775Z,67.93
2022-12-25T13:21:56.154Z,68.05
2022-12-25T13:24:24.909Z,68.17
2022-12-25T13:26:51.919Z,68.30
2022-12-25T13:29:23.044Z,68.38
2022-12-25T13:31:49.944Z,68.34
2022-12-25T13:34:32.204Z,68.36
2022-12-25T13:37:19.073Z,68.18
2022-12-25T13:39:54.779Z,68.27
2022-12-25T13:42:23.364Z,68.25
2022-12-25T13:44:58.701Z,68.43
2022-12-25T13:47:26.671Z,68.45
2022-12-25T13:49:54.886Z,68.63
2022-12-25T13:52:32.104Z,68.62
2022-12-25T13:55:06.305Z,68.80
2022-12-25T13:57:35.378Z,68.76
2022-12-25T14:00:02.558Z,68.73
2022-12-25T14:02:35.027Z,68.99
2022-12-25T14:05:02.549Z,69.13
2022-12-25T14:07:32.385Z,69.27
2022-12-25T14:10:03.375Z,69.33
2022-12-25T14:12:35.564Z,69.49
2022-12-25T14:15:05.115Z,69.55
2022-12-25T14:17:32.395Z,69.71
2022-12-25T14:20:08.611Z,69.58
2022-12-25T14:22:40.492Z,69.58
2022-12-25T14:25:14.449Z,69.95
2022-12-25T14:27:41.588Z,69.86
2022-12-25T14:30:12.958Z,69.76
2022-12-25T14:32:40.893Z,69.75
2022-12-25T14:35:10.259Z,69.82
2022-12-25T14:37:41.415Z,70.02
2022-12-25T14:40:30.958Z,70.05
2022-12-25T14:43:02.561Z,69.95
2022-12-25T14:45:36.213Z,69.92
2022-12-25T14:48:18.500Z,69.99
2022-12-25T14:51:05.872Z,70.01
2022-12-25T14:53:50.222Z,70.11
2022-12-25T14:56:20.699Z,70.25
2022-12-25T14:58:52.937Z,70.27
2022-12-25T15:01:22.478Z,70.33
2022-12-25T17:18:59.673Z,81.17
2022-12-25T17:21:35.841Z,80.26
2022-12-25T17:24:06.265Z,80.07
2022-12-25T17:26:33.724Z,79.65
2022-12-25T17:29:01.280Z,79.21
2022-12-25T17:31:28.618Z,78.74
2022-12-25T17:33:55.676Z,78.61
2022-12-25T17:36:22.859Z,78.47
2022-12-25T17:38:50.391Z,78.28
2022-12-25T17:41:18.080Z,78.11
2022-12-25T17:43:45.946Z,78.01
2022-12-25T17:46:32.735Z,77.62
2022-12-25T17:49:00.958Z,77.43
2022-12-25T17:51:28.968Z,77.51
2022-12-25T17:53:57.450Z,77.50
2022-12-25T17:56:24.700Z,77.67
2022-12-25T17:58:56.479Z,77.70
2022-12-25T18:01:24.047Z,77.59
2022-12-25T18:03:51.347Z,77.40
2022-12-25T18:06:21.080Z,77.48
2022-12-25T18:08:48.432Z,77.62
2022-12-25T18:11:23.809Z,77.66
2022-12-25T18:13:52.395Z,77.85
2022-12-25T18:16:22.799Z,78.05
2022-12-25T18:18:52.666Z,78.08
2022-12-25T18:21:22.299Z,78.11
2022-12-25T18:23:49.774Z,78.10
2022-12-25T18:26:16.713Z,78.22
2022-12-25T18:28:44.176Z,78.50
2022-12-25T18:31:13.473Z,78.69
2022-12-25T18:33:41.048Z,78.72
2022-12-25T18:36:09.603Z,78.50
2022-12-25T18:38:36.557Z,78.49
2022-12-25T18:41:05.242Z,78.51
2022-12-25T18:43:54.372Z,78.43
2022-12-25T18:46:22.635Z,78.28
2022-12-25T18:48:49.724Z,78.27
2022-12-25T18:51:16.771Z,78.11
2022-12-25T18:53:43.647Z,77.90
2022-12-25T18:56:12.838Z,77.91
2022-12-25T18:58:39.960Z,77.94
2022-12-25T19:01:18.749Z,77.96
2022-12-25T19:03:49.288Z,77.91
2022-12-25T19:06:27.235Z,77.80
2022-12-25T19:08:54.699Z,77.66
2022-12-25T19:11:21.832Z,77.59
2022-12-25T19:13:48.864Z,77.68
2022-12-25T19:16:16.905Z,77.78
2022-12-25T19:18:45.315Z,78.00
2022-12-25T19:21:12.369Z,77.98
2022-12-25T19:23:39.524Z,78.02
2022-12-25T19:26:07.571Z,78.02
2022-12-25T19:28:35.242Z,77.84
2022-12-25T19:31:03.974Z,77.73
2022-12-25T19:33:31.788Z,77.62
2022-12-25T19:41:59.809Z,77.72
2022-12-25T19:44:26.956Z,77.51
2022-12-25T19:46:54.002Z,77.22
2022-12-25T19:49:21.043Z,77.01
2022-12-25T19:51:48.810Z,77.08
2022-12-25T19:54:16.387Z,77.13
2022-12-25T19:56:43.644Z,77.08
2022-12-25T19:59:11.215Z,77.13
2022-12-25T20:01:39.227Z,77.12
2022-12-25T20:04:10.188Z,77.02
2022-12-25T20:06:38.479Z,76.90
2022-12-25T20:09:07.390Z,76.99
2022-12-25T20:11:34.708Z,77.14
2022-12-25T20:14:01.666Z,77.17
2022-12-25T20:16:28.682Z,77.32
2022-12-25T20:18:56.779Z,77.29
2022-12-25T20:21:24.159Z,77.24
2022-12-25T20:23:51.914Z,77.28
2022-12-25T20:26:20.491Z,77.53
2022-12-25T20:28:50.203Z,77.81
2022-12-25T20:31:19.637Z,77.76
2022-12-25T20:33:46.845Z,77.85
2022-12-25T20:36:13.709Z,77.76
2022-12-25T20:38:40.827Z,77.86
2022-12-25T20:41:29.029Z,77.92
2022-12-25T20:43:56.769Z,77.94
2022-12-25T20:46:25.060Z,78.28
2022-12-25T20:48:53.154Z,78.44
2022-12-25T20:51:22.419Z,78.58
2022-12-25T20:53:49.427Z,78.68
2022-12-25T20:56:17.617Z,78.76
2022-12-25T20:58:44.651Z,78.59
2022-12-25T21:01:13.457Z,78.70
2022-12-25T21:03:40.575Z,78.74
2022-12-25T21:06:07.937Z,78.69
2022-12-25T21:08:35.139Z,78.61
2022-12-25T21:11:02.242Z,78.41
2022-12-25T21:13:33.479Z,78.19
2022-12-25T21:16:00.629Z,78.14
2022-12-25T21:18:28.121Z,78.22
2022-12-25T21:20:56.895Z,78.09
2022-12-25T21:23:24.331Z,78.06
2022-12-25T21:25:51.804Z,78.08
2022-12-25T21:28:18.996Z,78.28
2022-12-25T21:30:45.903Z,78.45
2022-12-25T21:33:31.496Z,78.55
2022-12-25T21:36:09.843Z,78.72
2022-12-25T21:38:38.287Z,78.94
2022-12-25T21:41:12.383Z,79.05
2022-12-25T21:43:43.306Z,79.12
2022-12-25T21:46:13.048Z,79.23
2022-12-25T21:48:44.023Z,79.18
2022-12-25T21:51:47.681Z,78.90
2022-12-25T21:54:18.785Z,78.74
2022-12-25T21:56:47.502Z,78.95
2022-12-25T21:59:19.933Z,79.07
2022-12-25T22:01:48.880Z,79.00
2022-12-25T22:04:16.420Z,78.95
2022-12-25T22:07:03.686Z,78.98
2022-12-25T22:09:30.797Z,78.89
2022-12-25T22:12:17.644Z,78.71
2022-12-25T22:14:56.634Z,78.56
2022-12-25T22:17:45.094Z,78.51
2022-12-25T22:20:19.934Z,78.75
2022-12-25T22:22:47.163Z,78.91
2022-12-25T22:25:14.407Z,78.81
2022-12-25T22:27:42.370Z,78.47
2022-12-25T22:30:14.563Z,78.39
2022-12-25T22:32:41.806Z,78.34
2022-12-25T22:35:09.610Z,78.24
2022-12-25T22:37:38.144Z,78.27
2022-12-25T22:40:09.877Z,78.30
2022-12-25T22:42:36.945Z,78.38
2022-12-25T22:45:04.496Z,78.15
2022-12-25T22:47:31.469Z,78.04
2022-12-25T22:49:58.407Z,78.07
2022-12-25T22:52:25.486Z,78.08
2022-12-25T22:54:52.505Z,78.25
2022-12-25T22:57:19.528Z,78.33
2022-12-25T22:59:48.937Z,78.49
2022-12-25T23:02:16.252Z,78.46
2022-12-25T23:04:45.903Z,78.28
2022-12-25T23:07:14.746Z,78.30
2022-12-25T23:09:42.519Z,78.28
2022-12-25T23:12:30.047Z,78.21
2022-12-25T23:14:59.478Z,78.09
2022-12-25T23:17:45.292Z,78.06
2022-12-25T23:20:32.615Z,77.89
2022-12-25T23:23:18.441Z,77.71
2022-12-25T23:26:07.232Z,77.66
2022-12-25T23:28:53.971Z,77.79
2022-12-25T23:31:22.611Z,77.87
2022-12-25T23:33:49.671Z,77.82
2022-12-25T23:36:16.639Z,77.97
2022-12-25T23:38:43.767Z,77.93
2022-12-25T23:41:10.641Z,77.74
2022-12-25T23:43:37.552Z,77.76
2022-12-25T23:46:04.566Z,77.80
2022-12-25T23:48:31.665Z,77.82
2022-12-25T23:51:03.332Z,77.84
2022-12-25T23:53:31.012Z,77.95
2022-12-25T23:55:57.911Z,77.94
2022-12-25T23:58:25.529Z,77.78
